createdAt,value
2022-09-23T00:00:07.293Z,492.73
2022-09-23T00:00:17.298Z,492.78
2022-09-23T00:00:27.292Z,492.78
2022-09-23T00:00:37.302Z,492.70
2022-09-23T00:00:47.293Z,492.81
2022-09-23T00:00:57.299Z,492.83
2022-09-23T00:01:07.426Z,492.78
2022-09-23T00:01:17.342Z,492.75
2022-09-23T00:01:27.322Z,492.65
2022-09-23T00:01:37.551Z,492.76
2022-09-23T00:01:47.403Z,492.71
2022-09-23T00:01:57.389Z,492.74
2022-09-23T00:02:07.428Z,492.80
2022-09-23T00:02:17.360Z,492.82
2022-09-23T00:02:27.367Z,492.74
2022-09-23T00:02:37.346Z,492.76
2022-09-23T00:02:47.378Z,492.75
2022-09-23T00:02:57.354Z,492.82
2022-09-23T00:03:07.306Z,492.85
2022-09-23T00:03:17.449Z,492.89
2022-09-23T00:03:27.310Z,492.77
2022-09-23T00:03:37.374Z,492.85
2022-09-23T00:03:47.331Z,492.83
2022-09-23T00:03:57.309Z,492.82
2022-09-23T00:04:07.313Z,492.81
2022-09-23T00:04:17.314Z,492.89
2022-09-23T00:04:27.312Z,492.85
2022-09-23T00:04:37.314Z,492.82
2022-09-23T00:04:47.314Z,492.81
2022-09-23T00:04:57.298Z,492.78
2022-09-23T00:05:07.314Z,492.85
2022-09-23T00:05:17.299Z,492.83
2022-09-23T00:05:27.317Z,492.80
2022-09-23T00:05:37.320Z,492.72
2022-09-23T00:05:47.301Z,492.82
2022-09-23T00:05:57.321Z,492.76
2022-09-23T00:06:07.320Z,492.68
2022-09-23T00:06:17.322Z,492.69
2022-09-23T00:06:27.305Z,492.75
2022-09-23T00:06:37.326Z,492.75
2022-09-23T00:06:47.325Z,492.67
2022-09-23T00:06:57.325Z,492.73
2022-09-23T00:07:07.306Z,492.69
2022-09-23T00:07:17.325Z,492.73
2022-09-23T00:07:27.325Z,492.68
2022-09-23T00:07:37.328Z,492.73
2022-09-23T00:07:47.329Z,492.79
2022-09-23T00:07:57.329Z,492.78
2022-09-23T00:08:07.312Z,492.77
2022-09-23T00:08:17.329Z,492.72
2022-09-23T00:08:27.334Z,492.84
2022-09-23T00:08:37.334Z,492.86
2022-09-23T00:08:47.337Z,492.78
2022-09-23T00:08:57.335Z,492.85
2022-09-23T00:09:07.335Z,492.91
2022-09-23T00:09:17.335Z,492.89
2022-09-23T00:09:27.337Z,492.82
2022-09-23T00:09:37.341Z,492.81
2022-09-23T00:09:47.339Z,492.77
2022-09-23T00:09:57.338Z,492.89
2022-09-23T00:10:07.341Z,492.90
2022-09-23T00:10:17.342Z,492.90
2022-09-23T00:10:27.340Z,492.87
2022-09-23T00:10:37.354Z,492.90
2022-09-23T00:10:47.342Z,492.84
2022-09-23T00:10:57.347Z,492.86
2022-09-23T00:11:07.345Z,492.89
2022-09-23T00:11:17.345Z,492.95
2022-09-23T00:11:27.348Z,492.88
2022-09-23T00:11:37.345Z,492.88
2022-09-23T00:11:47.331Z,492.88
2022-09-23T00:11:57.331Z,492.86
2022-09-23T00:12:09.194Z,492.82
2022-09-23T00:12:17.351Z,492.82
2022-09-23T00:12:27.352Z,492.91
2022-09-23T00:12:37.353Z,492.92
2022-09-23T00:12:47.353Z,492.84
2022-09-23T00:12:57.354Z,493.02
2022-09-23T00:13:07.353Z,492.96
2022-09-23T00:13:17.356Z,492.84
2022-09-23T00:13:27.357Z,492.96
2022-09-23T00:13:37.342Z,492.88
2022-09-23T00:13:47.361Z,492.96
2022-09-23T00:13:57.362Z,492.98
2022-09-23T00:14:07.360Z,493.04
2022-09-23T00:14:17.361Z,492.97
2022-09-23T00:14:27.361Z,493.08
2022-09-23T00:14:37.365Z,493.08
2022-09-23T00:14:47.363Z,493.03
2022-09-23T00:14:57.365Z,493.02
2022-09-23T00:15:07.365Z,492.95
2022-09-23T00:15:17.372Z,492.96
2022-09-23T00:15:27.368Z,493.12
2022-09-23T00:15:37.368Z,493.14
2022-09-23T00:15:47.371Z,493.07
2022-09-23T00:15:57.373Z,493.20
2022-09-23T00:16:07.373Z,493.19
2022-09-23T00:16:17.441Z,493.12
2022-09-23T00:16:27.454Z,493.20
2022-09-23T00:16:37.382Z,493.23
2022-09-23T00:16:47.427Z,493.23
2022-09-23T00:16:57.390Z,493.22
2022-09-23T00:17:07.444Z,493.26
2022-09-23T00:17:17.381Z,493.29
2022-09-23T00:17:27.377Z,493.35
2022-09-23T00:17:37.377Z,493.34
2022-09-23T00:17:47.378Z,493.33
2022-09-23T00:17:57.378Z,493.36
2022-09-23T00:18:07.380Z,493.36
2022-09-23T00:18:17.379Z,493.37
2022-09-23T00:18:27.381Z,493.34
2022-09-23T00:18:37.383Z,493.40
2022-09-23T00:18:47.388Z,493.31
2022-09-23T00:18:57.384Z,493.43
2022-09-23T00:19:07.385Z,493.42
2022-09-23T00:19:17.456Z,493.44
2022-09-23T00:19:27.393Z,493.43
2022-09-23T00:19:37.386Z,493.40
2022-09-23T00:19:47.387Z,493.49
2022-09-23T00:19:57.388Z,493.50
2022-09-23T00:20:07.389Z,493.43
2022-09-23T00:20:17.390Z,493.43
2022-09-23T00:20:27.391Z,493.50
2022-09-23T00:20:37.377Z,493.50
2022-09-23T00:20:47.393Z,493.40
2022-09-23T00:20:57.393Z,493.52
2022-09-23T00:21:07.395Z,493.42
2022-09-23T00:21:17.396Z,493.53
2022-09-23T00:21:27.380Z,493.50
2022-09-23T00:21:37.397Z,493.45
2022-09-23T00:21:47.401Z,493.53
2022-09-23T00:21:57.400Z,493.56
2022-09-23T00:22:07.400Z,493.56
2022-09-23T00:22:17.387Z,493.50
2022-09-23T00:22:27.405Z,493.51
2022-09-23T00:22:37.409Z,493.47
2022-09-23T00:22:47.407Z,493.54
2022-09-23T00:22:57.407Z,493.52
2022-09-23T00:23:07.416Z,493.48
2022-09-23T00:23:17.407Z,493.63
2022-09-23T00:23:27.436Z,493.62
2022-09-23T00:23:37.409Z,493.57
2022-09-23T00:23:47.414Z,493.66
2022-09-23T00:23:57.411Z,493.55
2022-09-23T00:24:07.443Z,493.60
2022-09-23T00:24:17.414Z,493.55
2022-09-23T00:24:27.416Z,493.61
2022-09-23T00:24:37.416Z,493.55
2022-09-23T00:24:47.419Z,493.61
2022-09-23T00:24:57.417Z,493.57
2022-09-23T00:25:07.419Z,493.59
2022-09-23T00:25:17.422Z,493.61
2022-09-23T00:25:27.418Z,493.63
2022-09-23T00:25:37.419Z,493.64
2022-09-23T00:25:47.423Z,493.58
2022-09-23T00:25:57.426Z,493.58
2022-09-23T00:26:07.423Z,493.64
2022-09-23T00:26:17.428Z,493.70
2022-09-23T00:26:27.423Z,493.69
2022-09-23T00:26:37.424Z,493.73
2022-09-23T00:26:47.425Z,493.72
2022-09-23T00:26:57.424Z,493.64
2022-09-23T00:27:07.429Z,493.62
2022-09-23T00:27:17.424Z,493.64
2022-09-23T00:27:27.429Z,493.70
2022-09-23T00:27:37.429Z,493.63
2022-09-23T00:27:47.429Z,493.70
2022-09-23T00:27:57.433Z,493.71
2022-09-23T00:28:07.432Z,493.73
2022-09-23T00:28:17.431Z,493.79
2022-09-23T00:28:27.432Z,493.78
2022-09-23T00:28:37.433Z,493.81
2022-09-23T00:28:47.445Z,493.83
2022-09-23T00:28:57.434Z,493.82
2022-09-23T00:29:07.436Z,493.83
2022-09-23T00:29:17.423Z,493.83
2022-09-23T00:29:27.436Z,493.80
2022-09-23T00:29:37.437Z,493.82
2022-09-23T00:29:47.438Z,493.88
2022-09-23T00:29:57.440Z,493.93
2022-09-23T00:30:07.440Z,493.88
2022-09-23T00:30:17.441Z,493.99
2022-09-23T00:30:27.456Z,494.03
2022-09-23T00:30:37.488Z,494.03
2022-09-23T00:30:47.491Z,494.00
2022-09-23T00:30:57.489Z,494.09
2022-09-23T00:31:07.562Z,494.11
2022-09-23T00:31:17.537Z,494.06
2022-09-23T00:31:27.470Z,494.04
2022-09-23T00:31:37.445Z,494.11
2022-09-23T00:31:47.444Z,494.14
2022-09-23T00:31:57.448Z,494.20
2022-09-23T00:32:07.449Z,494.16
2022-09-23T00:32:17.450Z,494.21
2022-09-23T00:32:27.448Z,494.20
2022-09-23T00:32:37.450Z,494.14
2022-09-23T00:32:47.432Z,494.20
2022-09-23T00:32:57.452Z,494.19
2022-09-23T00:33:07.453Z,494.17
2022-09-23T00:33:17.453Z,494.22
2022-09-23T00:33:27.453Z,494.16
2022-09-23T00:33:37.459Z,494.17
2022-09-23T00:33:47.458Z,494.27
2022-09-23T00:33:57.456Z,494.27
2022-09-23T00:34:07.453Z,494.27
2022-09-23T00:34:17.455Z,494.20
2022-09-23T00:34:27.455Z,494.18
2022-09-23T00:34:37.456Z,494.21
2022-09-23T00:34:47.457Z,494.26
2022-09-23T00:34:57.458Z,494.29
2022-09-23T00:35:07.458Z,494.22
2022-09-23T00:35:17.459Z,494.32
2022-09-23T00:35:27.461Z,494.27
2022-09-23T00:35:37.442Z,494.27
2022-09-23T00:35:47.462Z,494.27
2022-09-23T00:35:57.463Z,494.28
2022-09-23T00:36:07.464Z,494.28
2022-09-23T00:36:17.465Z,494.32
2022-09-23T00:36:27.466Z,494.23
2022-09-23T00:36:37.471Z,494.26
2022-09-23T00:36:48.459Z,494.36
2022-09-23T00:36:57.450Z,494.28
2022-09-23T00:37:07.452Z,494.28
2022-09-23T00:37:17.468Z,494.34
2022-09-23T00:37:27.471Z,494.29
2022-09-23T00:37:37.473Z,494.32
2022-09-23T00:37:47.472Z,494.39
2022-09-23T00:37:57.473Z,494.44
2022-09-23T00:38:07.475Z,494.44
2022-09-23T00:38:17.474Z,494.48
2022-09-23T00:38:27.476Z,494.50
2022-09-23T00:38:37.477Z,494.41
2022-09-23T00:38:47.481Z,494.49
2022-09-23T00:38:57.481Z,494.50
2022-09-23T00:39:07.605Z,494.43
2022-09-23T00:39:17.489Z,494.50
2022-09-23T00:39:27.484Z,494.48
2022-09-23T00:39:37.467Z,494.50
2022-09-23T00:39:47.488Z,494.51
2022-09-23T00:39:57.485Z,494.52
2022-09-23T00:40:07.501Z,494.45
2022-09-23T00:40:17.546Z,494.53
2022-09-23T00:40:27.530Z,494.50
2022-09-23T00:40:37.553Z,494.45
2022-09-23T00:40:47.543Z,494.55
2022-09-23T00:40:57.491Z,494.58
2022-09-23T00:41:07.494Z,494.57
2022-09-23T00:41:17.493Z,494.54
2022-09-23T00:41:27.494Z,494.64
2022-09-23T00:41:37.496Z,494.55
2022-09-23T00:41:47.494Z,494.63
2022-09-23T00:41:57.495Z,494.59
2022-09-23T00:42:07.495Z,494.56
2022-09-23T00:42:17.497Z,494.62
2022-09-23T00:42:27.497Z,494.60
2022-09-23T00:42:37.501Z,494.56
2022-09-23T00:42:47.500Z,494.62
2022-09-23T00:42:57.503Z,494.60
2022-09-23T00:43:07.500Z,494.56
2022-09-23T00:43:17.501Z,494.68
2022-09-23T00:43:27.506Z,494.70
2022-09-23T00:43:37.489Z,494.68
2022-09-23T00:43:47.521Z,494.66
2022-09-23T00:43:57.508Z,494.68
2022-09-23T00:44:07.508Z,494.71
2022-09-23T00:44:17.509Z,494.71
2022-09-23T00:44:27.512Z,494.73
2022-09-23T00:44:37.515Z,494.73
2022-09-23T00:44:47.511Z,494.81
2022-09-23T00:44:57.515Z,494.82
2022-09-23T00:45:07.518Z,494.76
2022-09-23T00:45:17.515Z,494.91
2022-09-23T00:45:27.519Z,494.89
2022-09-23T00:45:37.535Z,494.90
2022-09-23T00:45:47.526Z,494.93
2022-09-23T00:45:57.569Z,494.92
2022-09-23T00:46:07.572Z,494.94
2022-09-23T00:46:17.579Z,494.93
2022-09-23T00:46:27.627Z,494.93
2022-09-23T00:46:37.525Z,494.96
2022-09-23T00:46:47.524Z,495.06
2022-09-23T00:46:57.526Z,495.08
2022-09-23T00:47:07.525Z,495.15
2022-09-23T00:47:17.527Z,495.13
2022-09-23T00:47:27.526Z,495.11
2022-09-23T00:47:37.528Z,495.17
2022-09-23T00:47:47.570Z,495.19
2022-09-23T00:47:57.529Z,495.20
2022-09-23T00:48:07.533Z,495.16
2022-09-23T00:48:17.536Z,495.27
2022-09-23T00:48:27.531Z,495.24
2022-09-23T00:48:37.537Z,495.23
2022-09-23T00:48:47.562Z,495.34
2022-09-23T00:48:57.533Z,495.37
2022-09-23T00:49:07.534Z,495.36
2022-09-23T00:49:17.534Z,495.37
2022-09-23T00:49:27.537Z,495.34
2022-09-23T00:49:37.536Z,495.30
2022-09-23T00:49:47.546Z,495.35
2022-09-23T00:49:57.538Z,495.38
2022-09-23T00:50:07.542Z,495.46
2022-09-23T00:50:17.540Z,495.47
2022-09-23T00:50:27.542Z,495.44
2022-09-23T00:50:37.547Z,495.45
2022-09-23T00:50:47.547Z,495.47
2022-09-23T00:50:57.574Z,495.53
2022-09-23T00:51:07.546Z,495.39
2022-09-23T00:51:17.547Z,495.49
2022-09-23T00:51:27.548Z,495.50
2022-09-23T00:51:37.551Z,495.50
2022-09-23T00:51:47.550Z,495.49
2022-09-23T00:51:57.549Z,495.52
2022-09-23T00:52:07.554Z,495.56
2022-09-23T00:52:17.553Z,495.54
2022-09-23T00:52:27.554Z,495.57
2022-09-23T00:52:37.554Z,495.57
2022-09-23T00:52:47.559Z,495.54
2022-09-23T00:52:57.555Z,495.57
2022-09-23T00:53:07.556Z,495.61
2022-09-23T00:53:17.556Z,495.59
2022-09-23T00:53:27.560Z,495.61
2022-09-23T00:53:37.557Z,495.62
2022-09-23T00:53:47.573Z,495.60
2022-09-23T00:53:57.563Z,495.58
2022-09-23T00:54:07.676Z,495.63
2022-09-23T00:54:17.561Z,495.62
2022-09-23T00:54:27.565Z,495.64
2022-09-23T00:54:37.562Z,495.64
2022-09-23T00:54:47.566Z,495.66
2022-09-23T00:54:57.568Z,495.61
2022-09-23T00:55:07.570Z,495.70
2022-09-23T00:55:17.567Z,495.75
2022-09-23T00:55:27.567Z,495.78
2022-09-23T00:55:37.568Z,495.70
2022-09-23T00:55:47.570Z,495.73
2022-09-23T00:55:57.573Z,495.64
2022-09-23T00:56:07.570Z,495.71
2022-09-23T00:56:17.572Z,495.73
2022-09-23T00:56:27.573Z,495.71
2022-09-23T00:56:37.575Z,495.67
2022-09-23T00:56:47.574Z,495.66
2022-09-23T00:56:57.582Z,495.67
2022-09-23T00:57:07.575Z,495.77
2022-09-23T00:57:17.560Z,495.71
2022-09-23T00:57:27.578Z,495.65
2022-09-23T00:57:37.581Z,495.65
2022-09-23T00:57:47.582Z,495.63
2022-09-23T00:57:57.580Z,495.59
2022-09-23T00:58:07.564Z,495.62
2022-09-23T00:58:17.583Z,495.63
2022-09-23T00:58:27.584Z,495.63
2022-09-23T00:58:37.585Z,495.68
2022-09-23T00:58:47.601Z,495.66
2022-09-23T00:58:57.588Z,495.68
2022-09-23T00:59:07.572Z,495.75
2022-09-23T00:59:17.589Z,495.78
2022-09-23T00:59:27.590Z,495.80
2022-09-23T00:59:37.594Z,495.79
2022-09-23T00:59:47.592Z,495.74
2022-09-23T00:59:57.596Z,495.83
2022-09-23T01:00:07.594Z,495.85
2022-09-23T01:00:17.593Z,495.80
2022-09-23T01:00:27.595Z,495.78
2022-09-23T01:00:37.600Z,495.88
2022-09-23T01:00:47.599Z,495.84
2022-09-23T01:00:57.623Z,495.83
2022-09-23T01:01:07.715Z,495.98
2022-09-23T01:01:17.691Z,495.98
2022-09-23T01:01:27.659Z,495.92
2022-09-23T01:01:37.689Z,495.97
2022-09-23T01:01:47.632Z,496.06
2022-09-23T01:01:57.687Z,496.05
2022-09-23T01:02:07.661Z,496.06
2022-09-23T01:02:17.631Z,496.07
2022-09-23T01:02:27.658Z,496.08
2022-09-23T01:02:37.690Z,496.19
2022-09-23T01:02:47.686Z,496.18
2022-09-23T01:02:57.607Z,496.10
2022-09-23T01:03:07.609Z,496.21
2022-09-23T01:03:17.608Z,496.17
2022-09-23T01:03:27.609Z,496.14
2022-09-23T01:03:37.612Z,496.26
2022-09-23T01:03:47.625Z,496.30
2022-09-23T01:03:57.615Z,496.29
2022-09-23T01:04:07.615Z,496.29
2022-09-23T01:04:17.614Z,496.27
2022-09-23T01:04:27.614Z,496.27
2022-09-23T01:04:37.617Z,496.37
2022-09-23T01:04:47.619Z,496.32
2022-09-23T01:04:57.620Z,496.34
2022-09-23T01:05:07.621Z,496.40
2022-09-23T01:05:17.624Z,496.34
2022-09-23T01:05:27.623Z,496.36
2022-09-23T01:05:37.625Z,496.48
2022-09-23T01:05:47.635Z,496.47
2022-09-23T01:05:57.625Z,496.47
2022-09-23T01:06:07.628Z,496.45
2022-09-23T01:06:17.625Z,496.51
2022-09-23T01:06:27.629Z,496.51
2022-09-23T01:06:37.610Z,496.51
2022-09-23T01:06:47.630Z,496.55
2022-09-23T01:06:57.631Z,496.55
2022-09-23T01:07:07.630Z,496.55
2022-09-23T01:07:17.633Z,496.62
2022-09-23T01:07:27.635Z,496.53
2022-09-23T01:07:37.632Z,496.59
2022-09-23T01:07:47.634Z,496.66
2022-09-23T01:07:57.638Z,496.66
2022-09-23T01:08:07.636Z,496.68
2022-09-23T01:08:17.635Z,496.71
2022-09-23T01:08:27.635Z,496.72
2022-09-23T01:08:37.636Z,496.75
2022-09-23T01:08:47.666Z,496.75
2022-09-23T01:08:57.646Z,496.76
2022-09-23T01:09:07.693Z,496.78
2022-09-23T01:09:17.641Z,496.72
2022-09-23T01:09:27.645Z,496.74
2022-09-23T01:09:37.649Z,496.86
2022-09-23T01:09:47.646Z,496.87
2022-09-23T01:09:57.645Z,496.90
2022-09-23T01:10:07.643Z,496.91
2022-09-23T01:10:17.645Z,496.87
2022-09-23T01:10:27.651Z,496.92
2022-09-23T01:10:37.634Z,496.90
2022-09-23T01:10:47.676Z,496.92
2022-09-23T01:10:57.652Z,496.91
2022-09-23T01:11:07.650Z,497.01
2022-09-23T01:11:17.651Z,497.00
2022-09-23T01:11:27.652Z,497.01
2022-09-23T01:11:37.652Z,497.03
2022-09-23T01:11:47.653Z,497.03
2022-09-23T01:11:57.653Z,497.02
2022-09-23T01:12:07.655Z,497.03
2022-09-23T01:12:17.637Z,497.01
2022-09-23T01:12:27.639Z,497.00
2022-09-23T01:12:37.658Z,497.11
2022-09-23T01:12:47.661Z,497.10
2022-09-23T01:12:57.659Z,497.06
2022-09-23T01:13:07.662Z,497.16
2022-09-23T01:13:17.662Z,497.13
2022-09-23T01:13:27.664Z,497.11
2022-09-23T01:13:37.665Z,497.22
2022-09-23T01:13:47.664Z,497.19
2022-09-23T01:13:57.670Z,497.23
2022-09-23T01:14:07.664Z,497.29
2022-09-23T01:14:17.667Z,497.31
2022-09-23T01:14:27.666Z,497.35
2022-09-23T01:14:37.668Z,497.32
2022-09-23T01:14:47.668Z,497.33
2022-09-23T01:14:57.672Z,497.35
2022-09-23T01:15:07.670Z,497.41
2022-09-23T01:15:17.674Z,497.45
2022-09-23T01:15:27.674Z,497.41
2022-09-23T01:15:37.674Z,497.53
2022-09-23T01:15:47.674Z,497.53
2022-09-23T01:15:57.678Z,497.56
2022-09-23T01:16:07.677Z,497.53
2022-09-23T01:16:17.723Z,497.47
2022-09-23T01:16:27.716Z,497.55
2022-09-23T01:16:37.751Z,497.54
2022-09-23T01:16:47.716Z,497.53
2022-09-23T01:16:57.712Z,497.57
2022-09-23T01:17:07.778Z,497.67
2022-09-23T01:17:17.682Z,497.72
2022-09-23T01:17:27.683Z,497.63
2022-09-23T01:17:37.687Z,497.68
2022-09-23T01:17:47.691Z,497.66
2022-09-23T01:17:57.686Z,497.71
2022-09-23T01:18:07.688Z,497.77
2022-09-23T01:18:17.687Z,497.75
2022-09-23T01:18:27.688Z,497.71
2022-09-23T01:18:37.690Z,497.70
2022-09-23T01:18:47.693Z,497.70
2022-09-23T01:18:57.694Z,497.72
2022-09-23T01:19:07.692Z,497.70
2022-09-23T01:19:17.694Z,497.66
2022-09-23T01:19:27.693Z,497.73
2022-09-23T01:19:37.694Z,497.69
2022-09-23T01:19:47.696Z,497.75
2022-09-23T01:19:57.699Z,497.72
2022-09-23T01:20:07.700Z,497.68
2022-09-23T01:20:17.681Z,497.75
2022-09-23T01:20:27.698Z,497.75
2022-09-23T01:20:37.701Z,497.76
2022-09-23T01:20:47.702Z,497.77
2022-09-23T01:20:57.700Z,497.78
2022-09-23T01:21:07.702Z,497.77
2022-09-23T01:21:17.705Z,497.77
2022-09-23T01:21:27.703Z,497.81
2022-09-23T01:21:37.686Z,497.81
2022-09-23T01:21:47.708Z,497.84
2022-09-23T01:21:57.707Z,497.83
2022-09-23T01:22:07.706Z,497.84
2022-09-23T01:22:17.709Z,497.82
2022-09-23T01:22:27.690Z,497.82
2022-09-23T01:22:37.707Z,497.82
2022-09-23T01:22:47.708Z,497.82
2022-09-23T01:22:57.712Z,497.91
2022-09-23T01:23:07.712Z,497.88
2022-09-23T01:23:17.713Z,497.96
2022-09-23T01:23:27.713Z,497.90
2022-09-23T01:23:37.718Z,497.93
2022-09-23T01:23:47.718Z,497.94
2022-09-23T01:23:57.718Z,497.98
2022-09-23T01:24:07.779Z,498.04
2022-09-23T01:24:17.718Z,498.06
2022-09-23T01:24:27.720Z,498.10
2022-09-23T01:24:37.720Z,498.18
2022-09-23T01:24:47.722Z,498.20
2022-09-23T01:24:57.725Z,498.24
2022-09-23T01:25:07.723Z,498.26
2022-09-23T01:25:17.824Z,498.29
2022-09-23T01:25:27.726Z,498.27
2022-09-23T01:25:37.725Z,498.41
2022-09-23T01:25:47.724Z,498.42
2022-09-23T01:25:57.728Z,498.37
2022-09-23T01:26:07.731Z,498.43
2022-09-23T01:26:17.728Z,498.43
2022-09-23T01:26:27.728Z,498.51
2022-09-23T01:26:37.730Z,498.53
2022-09-23T01:26:47.731Z,498.55
2022-09-23T01:26:57.733Z,498.56
2022-09-23T01:27:07.733Z,498.61
2022-09-23T01:27:17.733Z,498.65
2022-09-23T01:27:27.733Z,498.61
2022-09-23T01:27:37.734Z,498.71
2022-09-23T01:27:47.737Z,498.72
2022-09-23T01:27:57.735Z,498.72
2022-09-23T01:28:07.733Z,498.75
2022-09-23T01:28:17.741Z,498.81
2022-09-23T01:28:27.735Z,498.81
2022-09-23T01:28:37.736Z,498.78
2022-09-23T01:28:47.736Z,498.74
2022-09-23T01:28:57.740Z,498.74
2022-09-23T01:29:07.739Z,498.85
2022-09-23T01:29:17.746Z,498.86
2022-09-23T01:29:27.740Z,498.86
2022-09-23T01:29:37.742Z,498.89
2022-09-23T01:29:47.748Z,498.82
2022-09-23T01:29:57.748Z,498.92
2022-09-23T01:30:07.747Z,498.92
2022-09-23T01:30:17.748Z,498.91
2022-09-23T01:30:27.772Z,498.96
2022-09-23T01:30:37.820Z,498.99
2022-09-23T01:30:47.804Z,498.97
2022-09-23T01:30:57.784Z,498.96
2022-09-23T01:31:07.803Z,498.96
2022-09-23T01:31:17.794Z,498.98
2022-09-23T01:31:27.750Z,498.96
2022-09-23T01:31:37.757Z,499.06
2022-09-23T01:31:47.755Z,499.02
2022-09-23T01:31:57.753Z,499.11
2022-09-23T01:32:07.753Z,499.09
2022-09-23T01:32:17.739Z,499.09
2022-09-23T01:32:27.754Z,499.18
2022-09-23T01:32:37.755Z,499.15
2022-09-23T01:32:47.758Z,499.14
2022-09-23T01:32:57.757Z,499.15
2022-09-23T01:33:07.758Z,499.19
2022-09-23T01:33:17.758Z,499.25
2022-09-23T01:33:27.759Z,499.24
2022-09-23T01:33:37.758Z,499.25
2022-09-23T01:33:47.760Z,499.22
2022-09-23T01:33:57.762Z,499.26
2022-09-23T01:34:07.760Z,499.34
2022-09-23T01:34:17.764Z,499.36
2022-09-23T01:34:27.762Z,499.32
2022-09-23T01:34:37.764Z,499.26
2022-09-23T01:34:47.766Z,499.32
2022-09-23T01:34:57.768Z,499.34
2022-09-23T01:35:07.775Z,499.36
2022-09-23T01:35:17.766Z,499.33
2022-09-23T01:35:27.766Z,499.32
2022-09-23T01:35:37.767Z,499.36
2022-09-23T01:35:47.797Z,499.35
2022-09-23T01:35:57.768Z,499.34
2022-09-23T01:36:07.769Z,499.41
2022-09-23T01:36:17.770Z,499.32
2022-09-23T01:36:27.770Z,499.36
2022-09-23T01:36:37.771Z,499.40
2022-09-23T01:36:47.769Z,499.34
2022-09-23T01:36:57.776Z,499.42
2022-09-23T01:37:07.773Z,499.43
2022-09-23T01:37:17.756Z,499.42
2022-09-23T01:37:27.778Z,499.36
2022-09-23T01:37:37.779Z,499.45
2022-09-23T01:37:47.778Z,499.42
2022-09-23T01:37:57.780Z,499.45
2022-09-23T01:38:07.780Z,499.49
2022-09-23T01:38:17.781Z,499.45
2022-09-23T01:38:27.805Z,499.53
2022-09-23T01:38:37.780Z,499.46
2022-09-23T01:38:47.781Z,499.51
2022-09-23T01:38:57.813Z,499.49
2022-09-23T01:39:07.814Z,499.52
2022-09-23T01:39:17.784Z,499.47
2022-09-23T01:39:27.783Z,499.52
2022-09-23T01:39:37.783Z,499.52
2022-09-23T01:39:47.785Z,499.44
2022-09-23T01:39:57.785Z,499.50
2022-09-23T01:40:07.832Z,499.47
2022-09-23T01:40:17.862Z,499.47
2022-09-23T01:40:27.836Z,499.56
2022-09-23T01:40:37.837Z,499.55
2022-09-23T01:40:47.822Z,499.48
2022-09-23T01:40:57.792Z,499.59
2022-09-23T01:41:07.797Z,499.52
2022-09-23T01:41:17.792Z,499.52
2022-09-23T01:41:27.796Z,499.56
2022-09-23T01:41:37.794Z,499.54
2022-09-23T01:41:47.793Z,499.57
2022-09-23T01:41:57.801Z,499.67
2022-09-23T01:42:07.796Z,499.60
2022-09-23T01:42:17.797Z,499.72
2022-09-23T01:42:27.830Z,499.70
2022-09-23T01:42:37.798Z,499.72
2022-09-23T01:42:47.797Z,499.71
2022-09-23T01:42:57.811Z,499.82
2022-09-23T01:43:07.803Z,499.82
2022-09-23T01:43:17.801Z,499.82
2022-09-23T01:43:27.804Z,499.81
2022-09-23T01:43:37.805Z,499.90
2022-09-23T01:43:47.804Z,499.91
2022-09-23T01:43:57.810Z,499.89
2022-09-23T01:44:07.811Z,499.88
2022-09-23T01:44:17.807Z,499.87
2022-09-23T01:44:27.808Z,499.95
2022-09-23T01:44:37.817Z,499.97
2022-09-23T01:44:47.809Z,499.97
2022-09-23T01:44:57.815Z,499.94
2022-09-23T01:45:07.810Z,499.92
2022-09-23T01:45:17.810Z,499.97
2022-09-23T01:45:27.814Z,499.97
2022-09-23T01:45:37.813Z,499.98
2022-09-23T01:45:47.817Z,500.02
2022-09-23T01:45:57.813Z,499.99
2022-09-23T01:46:07.814Z,500.01
2022-09-23T01:46:17.817Z,500.03
2022-09-23T01:46:27.816Z,500.02
2022-09-23T01:46:37.817Z,500.00
2022-09-23T01:46:47.816Z,500.05
2022-09-23T01:46:57.823Z,500.06
2022-09-23T01:47:07.820Z,500.06
2022-09-23T01:47:17.819Z,500.00
2022-09-23T01:47:27.821Z,500.08
2022-09-23T01:47:37.822Z,500.08
2022-09-23T01:47:47.822Z,500.03
2022-09-23T01:47:57.873Z,500.08
2022-09-23T01:48:07.825Z,500.09
2022-09-23T01:48:17.856Z,500.07
2022-09-23T01:48:27.896Z,500.08
2022-09-23T01:48:37.874Z,500.07
2022-09-23T01:48:47.899Z,500.13
2022-09-23T01:48:57.826Z,500.12
2022-09-23T01:49:07.842Z,500.18
2022-09-23T01:49:17.830Z,500.14
2022-09-23T01:49:27.835Z,500.20
2022-09-23T01:49:37.829Z,500.22
2022-09-23T01:49:47.828Z,500.19
2022-09-23T01:49:57.838Z,500.23
2022-09-23T01:50:07.831Z,500.24
2022-09-23T01:50:17.833Z,500.20
2022-09-23T01:50:27.833Z,500.25
2022-09-23T01:50:37.832Z,500.25
2022-09-23T01:50:47.833Z,500.22
2022-09-23T01:50:57.835Z,500.27
2022-09-23T01:51:07.836Z,500.25
2022-09-23T01:51:17.836Z,500.32
2022-09-23T01:51:27.838Z,500.28
2022-09-23T01:51:37.839Z,500.24
2022-09-23T01:51:47.840Z,500.34
2022-09-23T01:51:57.840Z,500.33
2022-09-23T01:52:07.842Z,500.30
2022-09-23T01:52:17.843Z,500.37
2022-09-23T01:52:27.842Z,500.42
2022-09-23T01:52:37.845Z,500.43
2022-09-23T01:52:47.846Z,500.45
2022-09-23T01:52:57.847Z,500.44
2022-09-23T01:53:07.851Z,500.54
2022-09-23T01:53:17.848Z,500.54
2022-09-23T01:53:27.857Z,500.55
2022-09-23T01:53:37.850Z,500.53
2022-09-23T01:53:47.850Z,500.51
2022-09-23T01:53:57.850Z,500.54
2022-09-23T01:54:07.858Z,500.53
2022-09-23T01:54:17.852Z,500.52
2022-09-23T01:54:27.880Z,500.51
2022-09-23T01:54:37.853Z,500.50
2022-09-23T01:54:47.855Z,500.62
2022-09-23T01:54:57.855Z,500.60
2022-09-23T01:55:07.857Z,500.54
2022-09-23T01:55:17.858Z,500.66
2022-09-23T01:55:27.842Z,500.66
2022-09-23T01:55:37.864Z,500.68
2022-09-23T01:55:47.860Z,500.62
2022-09-23T01:55:57.862Z,500.64
2022-09-23T01:56:07.864Z,500.64
2022-09-23T01:56:17.864Z,500.73
2022-09-23T01:56:27.867Z,500.64
2022-09-23T01:56:37.867Z,500.72
2022-09-23T01:56:47.865Z,500.75
2022-09-23T01:56:57.850Z,500.73
2022-09-23T01:57:07.868Z,500.72
2022-09-23T01:57:17.867Z,500.71
2022-09-23T01:57:27.870Z,500.68
2022-09-23T01:57:37.872Z,500.69
2022-09-23T01:57:47.869Z,500.79
2022-09-23T01:57:57.868Z,500.78
2022-09-23T01:58:07.869Z,500.78
2022-09-23T01:58:17.871Z,500.73
2022-09-23T01:58:27.873Z,500.80
2022-09-23T01:58:37.873Z,500.80
2022-09-23T01:58:47.872Z,500.80
2022-09-23T01:58:57.878Z,500.84
2022-09-23T01:59:07.878Z,500.85
2022-09-23T01:59:17.878Z,500.84
2022-09-23T01:59:27.878Z,500.81
2022-09-23T01:59:37.862Z,500.81
2022-09-23T01:59:47.880Z,500.85
2022-09-23T01:59:57.879Z,500.94
2022-09-23T02:00:07.879Z,500.93
2022-09-23T02:00:17.880Z,500.90
2022-09-23T02:00:27.884Z,500.93
2022-09-23T02:00:37.882Z,501.02
2022-09-23T02:00:47.885Z,501.01
2022-09-23T02:00:57.951Z,501.06
2022-09-23T02:01:07.978Z,501.06
2022-09-23T02:01:17.931Z,501.13
2022-09-23T02:01:27.932Z,501.11
2022-09-23T02:01:37.918Z,501.13
2022-09-23T02:01:47.969Z,501.14
2022-09-23T02:01:57.946Z,501.16
2022-09-23T02:02:07.910Z,501.13
2022-09-23T02:02:17.927Z,501.20
2022-09-23T02:02:27.921Z,501.13
2022-09-23T02:02:37.968Z,501.22
2022-09-23T02:02:47.988Z,501.18
2022-09-23T02:02:57.893Z,501.14
2022-09-23T02:03:07.897Z,501.19
2022-09-23T02:03:17.897Z,501.19
2022-09-23T02:03:27.900Z,501.16
2022-09-23T02:03:37.882Z,501.18
2022-09-23T02:03:47.882Z,501.19
2022-09-23T02:03:57.900Z,501.18
2022-09-23T02:04:07.904Z,501.24
2022-09-23T02:04:17.900Z,501.17
2022-09-23T02:04:27.902Z,501.15
2022-09-23T02:04:37.903Z,501.23
2022-09-23T02:04:47.905Z,501.21